• Join FlightAware (Why Join?)
  • Login
  • US Flag 
11:14AM EDT


 

Airport Tracker/Info


-or-


 

Live Flight TrackerFlight Track Log ✈ N229CN ✈ 21-Apr-2013 ✈ KBED - KRIC

Flight Track Log - Related Links

Times and Time Zones

All times are in EDT time to prevent confusion due to time zone crossing. See the N229CN flight status page for this flight to view local times or setup timezone preferences in your user account.

Time Position Orientation Groundspeed Altitude Reporting Facility
EDT Latitude Longitude Course Direction KTS MPH feet Rate Location/Type
04:11PM 42.4667 -71.3167 236° Southwest 176 203 1,300  Level KA90
04:11PM 42.4500 -71.3500 236° Southwest 207 238 2,300 2,460 Climbing KA90
04:12PM 42.4000 -71.3667 194° South 235 270 5,000 3,540 Climbing KA90
04:13PM 42.3333 -71.3500 170° South 279 321 9,400 2,880 Climbing KA90
04:15PM 42.2961 -71.2303 113° Southeast 340 391 11,600 1,260 Climbing Boston Center
04:16PM 42.2550 -71.1161 116° Southeast 331 381 12,300 1,440 Climbing Boston Center
04:17PM 42.1878 -71.0558 146° Southeast 310 357 14,500 2,340 Climbing Boston Center
04:18PM 42.1181 -70.9958 147° Southeast 327 376 17,000 2,700 Climbing Boston Center
04:19PM 42.0233 -70.9142 147° Southeast 351 404 19,900 2,820 Climbing Boston Center
04:20PM 41.9472 -70.8433 145° Southeast 351 404 22,700 2,700 Climbing Boston Center
04:21PM 41.8608 -70.7731 149° Southeast 357 411 25,400 2,400 Climbing Boston Center
04:22PM 41.7817 -70.7836 186° South 312 359 27,600 2,220 Climbing Boston Center
04:23PM 41.7036 -70.8525 213° Southwest 289 333 29,900 2,700 Climbing Boston Center
04:24PM 41.6333 -70.9069 210° Southwest 289 333 33,100 2,700 Climbing Boston Center
04:25PM 41.5694 -70.9556 210° Southwest 284 327 35,300 1,680 Climbing Boston Center
04:26PM 41.5161 -71.0178 221° Southwest 272 313 36,500 1,500 Climbing Boston Center
04:27PM 41.4733 -71.0936 233° Southwest 260 299 38,400 1,440 Climbing Boston Center
04:28PM 41.4283 -71.1667 231° Southwest 260 299 39,400 1,200 Climbing Boston Center
04:29PM 41.3833 -71.2367 229° Southwest 260 299 40,900 1,020 Climbing Boston Center
04:30PM 41.3381 -71.3122 231° Southwest 260 299 41,500 900 Climbing Boston Center
04:31PM 41.2889 -71.3847 228° Southwest 260 299 42,700 720 Climbing Boston Center
04:32PM 41.2375 -71.4575 227° Southwest 265 305 43,000 120 Climbing Boston Center
04:33PM 41.1858 -71.5383 230° Southwest 276 318 43,000  Level Boston Center
04:34PM 41.1281 -71.5969 217° Southwest 282 325 43,000  Level Boston Center
04:35PM 41.0683 -71.6803 226° Southwest 296 341 43,000  Level Boston Center
04:36PM 41.0083 -71.7661 227° Southwest 312 359 43,000  Level Boston Center
04:37PM 40.9444 -71.8794 233° Southwest 330 380 43,000  Level Boston Center
04:38PM 40.8758 -71.9569 221° Southwest 325 374 43,000  Level Boston Center
04:39PM 40.8117 -72.0453 226° Southwest 330 380 43,000  Level Boston Center
04:40PM 40.7475 -72.1333 226° Southwest 330 380 43,000  Level Boston Center
04:41PM 40.6914 -72.2075 225° Southwest 330 380 43,000  Level Boston Center
04:42PM 40.6247 -72.2953 225° Southwest 330 380 43,000  Level Boston Center
04:43PM 40.5622 -72.3828 227° Southwest 330 380 43,000  Level Boston Center
04:44PM 40.4978 -72.4700 226° Southwest 330 380 43,000  Level Boston Center
04:45PM 40.4311 -72.5572 225° Southwest 330 380 43,000  Level Boston Center
04:46PM 40.3706 -72.6497 229° Southwest 330 380 43,000  Level Boston Center
04:47PM 40.3056 -72.7339 225° Southwest 330 380 43,000  Level Boston Center
04:48PM 40.2389 -72.8206 225° Southwest 330 380 43,000  Level Boston Center
04:49PM 40.1781 -72.9072 227° Southwest 330 380 43,000  Level Boston Center
04:50PM 40.1131 -72.9936 225° Southwest 330 380 43,000  Level Boston Center
04:51PM 40.0639 -73.0622 227° Southwest 326 375 43,000  Level Washington Center
04:52PM 40.0011 -73.1486 227° Southwest 326 375 43,000  Level Washington Center
04:53PM 39.9381 -73.2319 225° Southwest 326 375 43,000  Level Washington Center
04:54PM 39.8731 -73.3178 225° Southwest 326 375 43,000  Level Washington Center
04:55PM 39.8000 -73.4119 225° Southwest 326 375 43,000  Level Washington Center
04:56PM 39.7347 -73.4978 225° Southwest 331 381 43,000  Level Washington Center
04:57PM 39.6694 -73.5806 224° Southwest 331 381 43,000 -420 Level Washington Center
04:58PM 39.6125 -73.6603 227° Southwest 331 381 42,200 -1,200 Descending Washington Center
04:59PM 39.5492 -73.7400 224° Southwest 326 375 40,600 -1,560 Descending Washington Center
05:00PM 39.4900 -73.8194 226° Southwest 326 375 39,100 -1,500 Descending Washington Center
05:01PM 39.4286 -73.9017 226° Southwest 326 375 37,700 -1,500 Descending Washington Center
05:02PM 39.3692 -73.9781 225° Southwest 321 369 36,100 -1,560 Descending Washington Center
05:03PM 39.3139 -74.0519 226° Southwest 308 354 34,600 -1,500 Descending Washington Center
05:04PM 39.2544 -74.1281 225° Southwest 302 348 33,200 -1,500 Descending Washington Center
05:05PM 39.1867 -74.2125 224° Southwest 315 362 31,600 -1,560 Descending Washington Center
05:06PM 39.1250 -74.2939 226° Southwest 327 376 30,100 -1,500 Descending Washington Center
05:07PM 39.0614 -74.3753 225° Southwest 327 376 28,600 -1,500 Descending Washington Center
05:08PM 38.9953 -74.4592 225° Southwest 327 376 27,100 -1,320 Descending Washington Center
05:09PM 38.9378 -74.5481 230° Southwest 327 376 26,000 -600 Descending Washington Center
05:10PM 38.8928 -74.6475 240° Southwest 327 376 26,000  Level Washington Center
05:11PM 38.8436 -74.7442 237° Southwest 327 376 26,000  Level Washington Center
05:12PM 38.7961 -74.8406 238° Southwest 327 376 26,000  Level Washington Center
05:13PM 38.7489 -74.9394 239° Southwest 327 376 26,000  Level Washington Center
05:14PM 38.6994 -75.0383 237° Southwest 327 376 26,000  Level Washington Center
05:15PM 38.6519 -75.1425 240° Southwest 332 382 26,000  Level Washington Center
05:16PM 38.5894 -75.2172 223° Southwest 326 375 26,000  Level Washington Center
05:17PM 38.4978 -75.2522 197° South 323 372 26,000  Level Washington Center
05:18PM 38.4106 -75.2975 202° Southwest 328 377 26,000  Level Washington Center
05:19PM 38.3231 -75.3378 200° South 334 384 26,000  Level Washington Center
05:20PM 38.2375 -75.3856 204° Southwest 339 390 26,000  Level Washington Center
05:21PM 38.1522 -75.4281 201° Southwest 334 384 26,000 -240 Level Washington Center
05:22PM 38.0647 -75.4653 199° South 334 384 25,600 -1,500 Descending Washington Center
05:23PM 37.9894 -75.5153 208° Southwest 321 369 23,100 -1,800 Descending Washington Center
05:24PM 37.9186 -75.5733 213° Southwest 314 361 22,000 -600 Descending Washington Center
05:25PM 37.8458 -75.6286 211° Southwest 309 356 22,000  Level Washington Center
05:25PM 37.7956 -75.6653 210° Southwest 304 350 22,000  Level Washington Center
05:26PM 37.7747 -75.6811 211° Southwest 309 356 22,000 -780 Level Washington Center
05:27PM 37.7039 -75.7336 210° Southwest 302 348 20,900 -1,620 Descending Washington Center
05:27PM 37.6747 -75.7572 213° Southwest 290 334 20,000 -2,340 Descending Washington Center
05:28PM 37.6350 -75.7911 214° Southwest 296 341 18,600 -1,860 Descending Washington Center
05:28PM 37.6139 -75.8278 234° Southwest 291 335 18,000 -2,340 Descending Washington Center
05:29PM 37.5889 -75.8853 241° Southwest 290 334 16,300 -1,920 Descending Washington Center
05:29PM 37.5719 -75.9167 236° Southwest 290 334 16,100 -300 Descending Washington Center
05:30PM 37.5447 -75.9717 238° Southwest 296 341 16,000 -120 Descending Washington Center
05:30PM 37.5281 -76.0056 238° Southwest 295 339 16,000  Level Washington Center
05:31PM 37.5006 -76.0631 239° Southwest 301 346 16,000 -120 Level Washington Center
05:31PM 37.4839 -76.0917 234° Southwest 304 350 15,900 -1,140 Descending Washington Center
05:32PM 37.4567 -76.1414 235° Southwest 294 338 14,900 -1,320 Descending Washington Center
05:33PM 37.3936 -76.1956 214° Southwest 280 322 13,700 -1,380 Descending Washington Center
05:33PM 37.3686 -76.2242 222° Southwest 279 321 13,000 -1,500 Descending Washington Center
05:34PM 37.3308 -76.2553 213° Southwest 280 322 12,200 -1,500 Descending Washington Center
05:35PM 37.2575 -76.3250 217° Southwest 270 311 10,300 -1,500 Descending Washington Center
05:36PM 37.2050 -76.3794 220° Southwest 258 297 9,000 -900 Descending Washington Center
05:38PM 37.2000 -76.5333 268° West 259 298 7,900 -420 Descending Potomac TRACON
05:39PM 37.2167 -76.6167 284° West 267 307 7,900  Level Potomac TRACON
05:40PM 37.2333 -76.7000 284° West 272 313 7,900  Level Potomac TRACON
05:41PM 37.2667 -76.8000 293° West 269 310 7,900  Level Potomac TRACON
05:42PM 37.2833 -76.9000 282° West 271 312 7,900 -720 Level Potomac TRACON
05:43PM 37.3000 -76.9667 287° West 257 296 6,600 -1,440 Descending Potomac TRACON
05:44PM 37.3167 -77.0500 284° West 236 272 5,200 -1,500 Descending Potomac TRACON
05:45PM 37.3333 -77.1167 287° West 222 255 3,700 -1,620 Descending Potomac TRACON
05:46PM 37.3667 -77.2000 297° West 226 260 1,900 -1,020 Descending Potomac TRACON
05:47PM 37.4000 -77.2333 322° Northwest 182 209 1,700 -300 Descending Potomac TRACON
05:48PM 37.4500 -77.2667 332° Northwest 140 161 1,400 -480 Descending Potomac TRACON
05:49PM 37.4667 -77.2833 322° Northwest 103 119 800 -600 Descending Potomac TRACON
05:51PM 37.5000 -77.3167 322° Northwest  Level FlightAware Approximate
05:58PM 37.5052 -77.3197 322° Northwest  Level Estimated
05:59PM 37.5000 -77.3167 322° Northwest  Level FlightAware Approximate